sensor_id;sensor_type;location;lat;lon;timestamp;pressure;altitude;pressure_sealevel;temperature;humidity
47530;BME280;33272;51.922;7.730;2023-03-14T00:00:15;145535.34;;;12.24;100.00
47530;BME280;33272;51.922;7.730;2023-03-14T00:02:44;145517.53;;;12.17;100.00
47530;BME280;33272;51.922;7.730;2023-03-14T00:05:12;145502.34;;;12.11;100.00
47530;BME280;33272;51.922;7.730;2023-03-14T00:07:39;145485.81;;;12.04;100.00
47530;BME280;33272;51.922;7.730;2023-03-14T00:10:10;145490.91;;;12.06;100.00
47530;BME280;33272;51.922;7.730;2023-03-14T00:12:38;145485.81;;;12.04;100.00
47530;BME280;33272;51.922;7.730;2023-03-14T00:15:07;145487.13;;;12.04;100.00
47530;BME280;33272;51.922;7.730;2023-03-14T00:17:35;145475.69;;;12.00;100.00
47530;BME280;33272;51.922;7.730;2023-03-14T00:20:06;145461.72;;;11.94;100.00
47530;BME280;33272;51.922;7.730;2023-03-14T00:22:36;145461.72;;;11.94;100.00
47530;BME280;33272;51.922;7.730;2023-03-14T00:25:04;145445.22;;;11.88;100.00
47530;BME280;33272;51.922;7.730;2023-03-14T00:27:32;145437.59;;;11.85;100.00
47530;BME280;33272;51.922;7.730;2023-03-14T00:29:59;145441.44;;;11.86;100.00
47530;BME280;33272;51.922;7.730;2023-03-14T00:32:26;145442.69;;;11.87;100.00
47530;BME280;33272;51.922;7.730;2023-03-14T00:34:53;145436.31;;;11.84;100.00
47530;BME280;33272;51.922;7.730;2023-03-14T00:37:21;145435.03;;;11.83;100.00
47530;BME280;33272;51.922;7.730;2023-03-14T00:39:51;145424.91;;;11.79;100.00
47530;BME280;33272;51.922;7.730;2023-03-14T00:42:18;145416.03;;;11.76;100.00
47530;BME280;33272;51.922;7.730;2023-03-14T00:44:45;145395.72;;;11.68;100.00
47530;BME280;33272;51.922;7.730;2023-03-14T00:47:12;145394.44;;;11.67;100.00
47530;BME280;33272;51.922;7.730;2023-03-14T00:49:39;145395.72;;;11.68;100.00
47530;BME280;33272;51.922;7.730;2023-03-14T00:52:09;145383.00;;;11.63;100.00
47530;BME280;33272;51.922;7.730;2023-03-14T00:54:37;145379.22;;;11.61;100.00
47530;BME280;33272;51.922;7.730;2023-03-14T00:57:04;145380.47;;;11.62;100.00
47530;BME280;33272;51.922;7.730;2023-03-14T00:59:31;145379.22;;;11.61;100.00
47530;BME280;33272;51.922;7.730;2023-03-14T01:01:58;145358.91;;;11.53;100.00
47530;BME280;33272;51.922;7.730;2023-03-14T01:04:25;145342.44;;;11.46;100.00
47530;BME280;33272;51.922;7.730;2023-03-14T01:06:52;145355.13;;;11.51;100.00
47530;BME280;33272;51.922;7.730;2023-03-14T01:09:19;145350.03;;;11.49;100.00
47530;BME280;33272;51.922;7.730;2023-03-14T01:11:48;145341.16;;;11.46;100.00
47530;BME280;33272;51.922;7.730;2023-03-14T01:14:15;145325.94;;;11.40;100.00
47530;BME280;33272;51.922;7.730;2023-03-14T01:16:42;145325.94;;;11.40;100.00
47530;BME280;33272;51.922;7.730;2023-03-14T01:19:09;145338.63;;;11.45;100.00
47530;BME280;33272;51.922;7.730;2023-03-14T01:21:36;145352.56;;;11.50;100.00
47530;BME280;33272;51.922;7.730;2023-03-14T01:24:05;145361.47;;;11.54;100.00
47530;BME280;33272;51.922;7.730;2023-03-14T01:26:34;145386.84;;;11.64;100.00
47530;BME280;33272;51.922;7.730;2023-03-14T01:29:03;145403.31;;;11.71;100.00
47530;BME280;33272;51.922;7.730;2023-03-14T01:31:30;145421.06;;;11.78;100.00
47530;BME280;33272;51.922;7.730;2023-03-14T01:33:58;145422.34;;;11.78;100.00
47530;BME280;33272;51.922;7.730;2023-03-14T01:36:25;145417.28;;;11.76;100.00
47530;BME280;33272;51.922;7.730;2023-03-14T01:38:52;145441.44;;;11.86;100.00
47530;BME280;33272;51.922;7.730;2023-03-14T01:41:21;145465.53;;;11.96;100.00
47530;BME280;33272;51.922;7.730;2023-03-14T01:43:50;145492.16;;;12.06;100.00
47530;BME280;33272;51.922;7.730;2023-03-14T01:46:35;145497.25;;;12.09;100.00
47530;BME280;33272;51.922;7.730;2023-03-14T01:49:13;145493.44;;;12.07;100.00
47530;BME280;33272;51.922;7.730;2023-03-14T01:51:47;145483.28;;;12.03;100.00
47530;BME280;33272;51.922;7.730;2023-03-14T01:54:19;145404.59;;;11.71;100.00
47530;BME280;33272;51.922;7.730;2023-03-14T01:56:52;145352.56;;;11.50;100.00
47530;BME280;33272;51.922;7.730;2023-03-14T01:59:21;145337.34;;;11.44;100.00
47530;BME280;33272;51.922;7.730;2023-03-14T02:01:50;145265.06;;;11.15;100.00
47530;BME280;33272;51.922;7.730;2023-03-14T02:04:19;145223.22;;;10.98;100.00
47530;BME280;33272;51.922;7.730;2023-03-14T02:06:53;145219.41;;;10.97;100.00
47530;BME280;33272;51.922;7.730;2023-03-14T02:09:22;145195.31;;;10.87;100.00
47530;BME280;33272;51.922;7.730;2023-03-14T02:11:50;145167.47;;;10.76;100.00
47530;BME280;33272;51.922;7.730;2023-03-14T02:14:30;145120.56;;;10.57;100.00
47530;BME280;33272;51.922;7.730;2023-03-14T02:17:00;145130.69;;;10.61;100.00
47530;BME280;33272;51.922;7.730;2023-03-14T02:19:43;145128.16;;;10.60;100.00
47530;BME280;33272;51.922;7.730;2023-03-14T02:22:15;145110.38;;;10.53;100.00
47530;BME280;33272;51.922;7.730;2023-03-14T02:24:50;145077.44;;;10.39;100.00
47530;BME280;33272;51.922;7.730;2023-03-14T02:27:24;145076.19;;;10.39;100.00
47530;BME280;33272;51.922;7.730;2023-03-14T02:29:54;145067.31;;;10.35;100.00
47530;BME280;33272;51.922;7.730;2023-03-14T02:32:24;145048.34;;;10.28;100.00
47530;BME280;33272;51.922;7.730;2023-03-14T02:34:55;145049.59;;;10.28;100.00
47530;BME280;33272;51.922;7.730;2023-03-14T02:37:28;145010.28;;;10.12;100.00
47530;BME280;33272;51.922;7.730;2023-03-14T02:39:58;145011.53;;;10.13;100.00
47530;BME280;33272;51.922;7.730;2023-03-14T02:42:27;144998.84;;;10.08;100.00
47530;BME280;33272;51.922;7.730;2023-03-14T02:45:21;144984.91;;;10.02;100.00
47530;BME280;33272;51.922;7.730;2023-03-14T02:47:44;144976.03;;;9.98;100.00
47530;BME280;33272;51.922;7.730;2023-03-14T02:50:17;144989.97;;;10.04;100.00
47530;BME280;33272;51.922;7.730;2023-03-14T02:52:46;144983.63;;;10.02;100.00
47530;BME280;33272;51.922;7.730;2023-03-14T02:55:20;144955.78;;;9.90;100.00
47530;BME280;33272;51.922;7.730;2023-03-14T02:57:48;144945.63;;;9.86;100.00
47530;BME280;33272;51.922;7.730;2023-03-14T03:00:18;144944.38;;;9.86;100.00
47530;BME280;33272;51.922;7.730;2023-03-14T03:02:45;144936.78;;;9.83;100.00
47530;BME280;33272;51.922;7.730;2023-03-14T03:05:12;144925.41;;;9.78;100.00
47530;BME280;33272;51.922;7.730;2023-03-14T03:07:39;144915.22;;;9.74;100.00
47530;BME280;33272;51.922;7.730;2023-03-14T03:10:08;144913.97;;;9.73;100.00
47530;BME280;33272;51.922;7.730;2023-03-14T03:12:35;144902.59;;;9.69;100.00
47530;BME280;33272;51.922;7.730;2023-03-14T03:15:05;144913.97;;;9.73;100.00
47530;BME280;33272;51.922;7.730;2023-03-14T03:17:32;144903.84;;;9.69;100.00
47530;BME280;33272;51.922;7.730;2023-03-14T03:19:59;144912.72;;;9.73;100.00
47530;BME280;33272;51.922;7.730;2023-03-14T03:22:26;144920.31;;;9.76;100.00
47530;BME280;33272;51.922;7.730;2023-03-14T03:24:53;144925.41;;;9.78;100.00
47530;BME280;33272;51.922;7.730;2023-03-14T03:27:20;144934.25;;;9.82;100.00
47530;BME280;33272;51.922;7.730;2023-03-14T03:29:47;144920.31;;;9.76;100.00
47530;BME280;33272;51.922;7.730;2023-03-14T03:32:16;144922.81;;;9.77;100.00
47530;BME280;33272;51.922;7.730;2023-03-14T03:34:43;144927.91;;;9.79;100.00
47530;BME280;33272;51.922;7.730;2023-03-14T03:37:10;144935.50;;;9.82;100.00
47530;BME280;33272;51.922;7.730;2023-03-14T03:39:37;144933.00;;;9.81;100.00
47530;BME280;33272;51.922;7.730;2023-03-14T03:42:04;144919.06;;;9.75;100.00
47530;BME280;33272;51.922;7.730;2023-03-14T03:44:31;144913.97;;;9.73;100.00
47530;BME280;33272;51.922;7.730;2023-03-14T03:46:58;144925.41;;;9.78;100.00
47530;BME280;33272;51.922;7.730;2023-03-14T03:49:30;144940.59;;;9.84;100.00
47530;BME280;33272;51.922;7.730;2023-03-14T03:51:57;144939.34;;;9.84;100.00
47530;BME280;33272;51.922;7.730;2023-03-14T03:54:25;144972.25;;;9.97;100.00
47530;BME280;33272;51.922;7.730;2023-03-14T03:56:52;144983.63;;;10.02;100.00
47530;BME280;33272;51.922;7.730;2023-03-14T03:59:19;144983.63;;;10.02;100.00
47530;BME280;33272;51.922;7.730;2023-03-14T04:01:46;144986.22;;;10.03;100.00
47530;BME280;33272;51.922;7.730;2023-03-14T04:04:13;145003.94;;;10.10;100.00
47530;BME280;33272;51.922;7.730;2023-03-14T04:06:41;145002.66;;;10.09;100.00
47530;BME280;33272;51.922;7.730;2023-03-14T04:09:09;144989.97;;;10.04;100.00
47530;BME280;33272;51.922;7.730;2023-03-14T04:11:36;145002.66;;;10.09;100.00
47530;BME280;33272;51.922;7.730;2023-03-14T04:14:03;145014.06;;;10.14;100.00
47530;BME280;33272;51.922;7.730;2023-03-14T04:16:30;145001.41;;;10.09;100.00
47530;BME280;33272;51.922;7.730;2023-03-14T04:18:58;144989.97;;;10.04;100.00
47530;BME280;33272;51.922;7.730;2023-03-14T04:21:25;144969.69;;;9.96;100.00
47530;BME280;33272;51.922;7.730;2023-03-14T04:23:53;144978.59;;;10.00;100.00
47530;BME280;33272;51.922;7.730;2023-03-14T04:26:20;144986.22;;;10.03;100.00
47530;BME280;33272;51.922;7.730;2023-03-14T04:28:48;144978.59;;;10.00;100.00
47530;BME280;33272;51.922;7.730;2023-03-14T04:31:17;144976.03;;;9.98;100.00
47530;BME280;33272;51.922;7.730;2023-03-14T04:33:44;144978.59;;;10.00;100.00
47530;BME280;33272;51.922;7.730;2023-03-14T04:36:12;144991.25;;;10.05;100.00
47530;BME280;33272;51.922;7.730;2023-03-14T04:38:40;144991.25;;;10.05;100.00
47530;BME280;33272;51.922;7.730;2023-03-14T04:41:08;144989.97;;;10.04;100.00
47530;BME280;33272;51.922;7.730;2023-03-14T04:43:35;144998.84;;;10.08;100.00
47530;BME280;33272;51.922;7.730;2023-03-14T04:46:02;144993.81;;;10.06;100.00
47530;BME280;33272;51.922;7.730;2023-03-14T04:48:29;144995.06;;;10.06;100.00
47530;BME280;33272;51.922;7.730;2023-03-14T04:50:56;145017.88;;;10.15;100.00
47530;BME280;33272;51.922;7.730;2023-03-14T04:53:23;145030.50;;;10.20;100.00
47530;BME280;33272;51.922;7.730;2023-03-14T04:55:52;145022.91;;;10.17;100.00
47530;BME280;33272;51.922;7.730;2023-03-14T04:58:21;145040.69;;;10.25;100.00
47530;BME280;33272;51.922;7.730;2023-03-14T05:00:49;145041.94;;;10.25;100.00
47530;BME280;33272;51.922;7.730;2023-03-14T05:03:17;145054.63;;;10.30;100.00
47530;BME280;33272;51.922;7.730;2023-03-14T05:05:45;145050.84;;;10.29;100.00
47530;BME280;33272;51.922;7.730;2023-03-14T05:08:12;145074.94;;;10.38;100.00
47530;BME280;33272;51.922;7.730;2023-03-14T05:10:39;145069.84;;;10.36;100.00
47530;BME280;33272;51.922;7.730;2023-03-14T05:13:06;145072.41;;;10.37;100.00
47530;BME280;33272;51.922;7.730;2023-03-14T05:15:34;145057.19;;;10.31;100.00
47530;BME280;33272;51.922;7.730;2023-03-14T05:18:01;145049.59;;;10.28;100.00
47530;BME280;33272;51.922;7.730;2023-03-14T05:20:29;145047.03;;;10.27;100.00
47530;BME280;33272;51.922;7.730;2023-03-14T05:22:57;145030.50;;;10.20;100.00
47530;BME280;33272;51.922;7.730;2023-03-14T05:25:24;145033.09;;;10.21;100.00
47530;BME280;33272;51.922;7.730;2023-03-14T05:27:53;145052.13;;;10.29;100.00
47530;BME280;33272;51.922;7.730;2023-03-14T05:30:21;145047.03;;;10.27;100.00
47530;BME280;33272;51.922;7.730;2023-03-14T05:32:50;145033.09;;;10.21;100.00
47530;BME280;33272;51.922;7.730;2023-03-14T05:35:17;145010.28;;;10.12;100.00
47530;BME280;33272;51.922;7.730;2023-03-14T05:37:44;145011.53;;;10.13;100.00
47530;BME280;33272;51.922;7.730;2023-03-14T05:40:11;145019.13;;;10.16;100.00
47530;BME280;33272;51.922;7.730;2023-03-14T05:42:38;145007.72;;;10.11;100.00
47530;BME280;33272;51.922;7.730;2023-03-14T05:45:07;145003.94;;;10.10;100.00
47530;BME280;33272;51.922;7.730;2023-03-14T05:47:34;145002.66;;;10.09;100.00
47530;BME280;33272;51.922;7.730;2023-03-14T05:50:02;145015.31;;;10.14;100.00
47530;BME280;33272;51.922;7.730;2023-03-14T05:52:29;145016.56;;;10.15;100.00
47530;BME280;33272;51.922;7.730;2023-03-14T05:54:57;144991.25;;;10.05;100.00
47530;BME280;33272;51.922;7.730;2023-03-14T05:57:24;144967.19;;;9.95;100.00
47530;BME280;33272;51.922;7.730;2023-03-14T05:59:51;144973.53;;;9.97;100.00
47530;BME280;33272;51.922;7.730;2023-03-14T06:02:18;144944.38;;;9.86;100.00
47530;BME280;33272;51.922;7.730;2023-03-14T06:04:45;144903.84;;;9.69;100.00
47530;BME280;33272;51.922;7.730;2023-03-14T06:07:13;144915.22;;;9.74;100.00
47530;BME280;33272;51.922;7.730;2023-03-14T06:09:40;144911.44;;;9.72;100.00
47530;BME280;33272;51.922;7.730;2023-03-14T06:12:07;144920.31;;;9.76;100.00
47530;BME280;33272;51.922;7.730;2023-03-14T06:14:34;144911.44;;;9.72;100.00
47530;BME280;33272;51.922;7.730;2023-03-14T06:17:01;144878.53;;;9.59;100.00
47530;BME280;33272;51.922;7.730;2023-03-14T06:19:28;144889.91;;;9.64;100.00
47530;BME280;33272;51.922;7.730;2023-03-14T06:21:55;144892.47;;;9.65;100.00
47530;BME280;33272;51.922;7.730;2023-03-14T06:24:23;144873.44;;;9.57;100.00
47530;BME280;33272;51.922;7.730;2023-03-14T06:26:50;144873.44;;;9.57;100.00
47530;BME280;33272;51.922;7.730;2023-03-14T06:29:17;144872.19;;;9.57;100.00
47530;BME280;33272;51.922;7.730;2023-03-14T06:31:44;144870.94;;;9.56;100.00
47530;BME280;33272;51.922;7.730;2023-03-14T06:34:11;144864.59;;;9.54;100.00
47530;BME280;33272;51.922;7.730;2023-03-14T06:36:39;144854.47;;;9.49;100.00
47530;BME280;33272;51.922;7.730;2023-03-14T06:39:06;144859.50;;;9.51;100.00
47530;BME280;33272;51.922;7.730;2023-03-14T06:41:34;144854.47;;;9.49;100.00
47530;BME280;33272;51.922;7.730;2023-03-14T06:44:01;144838.03;;;9.43;100.00
47530;BME280;33272;51.922;7.730;2023-03-14T06:46:28;144824.09;;;9.37;100.00
47530;BME280;33272;51.922;7.730;2023-03-14T06:48:55;144819.00;;;9.35;100.00
47530;BME280;33272;51.922;7.730;2023-03-14T06:51:22;144834.19;;;9.41;100.00
47530;BME280;33272;51.922;7.730;2023-03-14T06:53:50;144840.53;;;9.44;100.00
47530;BME280;33272;51.922;7.730;2023-03-14T06:56:16;144851.91;;;9.48;100.00
47530;BME280;33272;51.922;7.730;2023-03-14T06:58:45;144835.47;;;9.42;100.00
47530;BME280;33272;51.922;7.730;2023-03-14T07:01:21;144848.13;;;9.47;100.00
47530;BME280;33272;51.922;7.730;2023-03-14T07:03:49;144825.34;;;9.38;100.00
47530;BME280;33272;51.922;7.730;2023-03-14T07:06:16;144846.88;;;9.46;100.00
47530;BME280;33272;51.922;7.730;2023-03-14T07:08:43;144825.34;;;9.38;100.00
47530;BME280;33272;51.922;7.730;2023-03-14T07:11:10;144864.59;;;9.54;100.00
47530;BME280;33272;51.922;7.730;2023-03-14T07:13:38;144881.06;;;9.60;100.00
47530;BME280;33272;51.922;7.730;2023-03-14T07:16:08;144891.16;;;9.64;100.00
47530;BME280;33272;51.922;7.730;2023-03-14T07:18:35;144907.69;;;9.71;100.00
47530;BME280;33272;51.922;7.730;2023-03-14T07:21:03;144886.13;;;9.62;100.00
47530;BME280;33272;51.922;7.730;2023-03-14T07:23:30;144917.78;;;9.75;100.00
47530;BME280;33272;51.922;7.730;2023-03-14T07:25:57;144933.00;;;9.81;100.00
47530;BME280;33272;51.922;7.730;2023-03-14T07:28:24;144929.16;;;9.80;100.00
47530;BME280;33272;51.922;7.730;2023-03-14T07:30:52;144967.19;;;9.95;100.00
47530;BME280;33272;51.922;7.730;2023-03-14T07:33:21;144936.78;;;9.83;100.00
47530;BME280;33272;51.922;7.730;2023-03-14T07:35:48;144943.13;;;9.85;100.00
47530;BME280;33272;51.922;7.730;2023-03-14T07:38:15;144945.63;;;9.86;100.00
47530;BME280;33272;51.922;7.730;2023-03-14T07:40:42;144949.47;;;9.88;100.00
47530;BME280;33272;51.922;7.730;2023-03-14T07:43:09;144949.47;;;9.88;100.00
47530;BME280;33272;51.922;7.730;2023-03-14T07:45:37;144949.47;;;9.88;100.00
47530;BME280;33272;51.922;7.730;2023-03-14T07:48:04;144957.06;;;9.91;100.00
47530;BME280;33272;51.922;7.730;2023-03-14T07:50:32;144979.88;;;10.00;100.00
47530;BME280;33272;51.922;7.730;2023-03-14T07:52:59;144962.09;;;9.93;100.00
47530;BME280;33272;51.922;7.730;2023-03-14T07:55:26;144963.41;;;9.93;100.00
47530;BME280;33272;51.922;7.730;2023-03-14T07:57:53;145003.94;;;10.10;100.00
47530;BME280;33272;51.922;7.730;2023-03-14T08:00:21;145011.53;;;10.13;100.00
47530;BME280;33272;51.922;7.730;2023-03-14T08:02:48;145031.78;;;10.21;100.00
47530;BME280;33272;51.922;7.730;2023-03-14T08:05:15;145068.59;;;10.36;100.00
47530;BME280;33272;51.922;7.730;2023-03-14T08:07:43;145085.06;;;10.42;100.00
47530;BME280;33272;51.922;7.730;2023-03-14T08:10:11;145116.72;;;10.55;100.00
47530;BME280;33272;51.922;7.730;2023-03-14T08:12:41;145134.50;;;10.62;100.00
47530;BME280;33272;51.922;7.730;2023-03-14T08:15:09;145140.81;;;10.65;100.00
47530;BME280;33272;51.922;7.730;2023-03-14T08:17:39;145151.00;;;10.69;100.00
47530;BME280;33272;51.922;7.730;2023-03-14T08:20:08;145158.59;;;10.72;100.00
47530;BME280;33272;51.922;7.730;2023-03-14T08:22:37;145169.97;;;10.77;100.00
47530;BME280;33272;51.922;7.730;2023-03-14T08:25:06;145167.47;;;10.76;100.00
47530;BME280;33272;51.922;7.730;2023-03-14T08:27:34;145149.69;;;10.68;100.00
47530;BME280;33272;51.922;7.730;2023-03-14T08:30:05;145178.84;;;10.80;100.00
47530;BME280;33272;51.922;7.730;2023-03-14T08:32:32;145180.09;;;10.81;100.00
47530;BME280;33272;51.922;7.730;2023-03-14T08:34:59;145185.19;;;10.83;100.00
47530;BME280;33272;51.922;7.730;2023-03-14T08:37:27;145202.94;;;10.90;100.00
47530;BME280;33272;51.922;7.730;2023-03-14T08:39:54;145206.75;;;10.92;100.00
47530;BME280;33272;51.922;7.730;2023-03-14T08:42:22;145183.94;;;10.82;100.00
47530;BME280;33272;51.922;7.730;2023-03-14T08:44:51;145190.28;;;10.85;100.00
47530;BME280;33272;51.922;7.730;2023-03-14T08:47:18;145218.16;;;10.96;100.00
47530;BME280;33272;51.922;7.730;2023-03-14T08:49:45;145254.94;;;11.11;100.00
47530;BME280;33272;51.922;7.730;2023-03-14T08:52:13;145249.84;;;11.09;100.00
47530;BME280;33272;51.922;7.730;2023-03-14T08:54:42;145277.75;;;11.20;100.00
47530;BME280;33272;51.922;7.730;2023-03-14T08:57:10;145286.63;;;11.24;100.00
47530;BME280;33272;51.922;7.730;2023-03-14T08:59:38;145317.06;;;11.36;100.00
47530;BME280;33272;51.922;7.730;2023-03-14T09:02:05;145328.47;;;11.41;100.00
47530;BME280;33272;51.922;7.730;2023-03-14T09:04:33;145332.28;;;11.42;100.00
47530;BME280;33272;51.922;7.730;2023-03-14T09:07:01;145356.38;;;11.52;100.00
47530;BME280;33272;51.922;7.730;2023-03-14T09:09:29;145346.25;;;11.48;100.00
47530;BME280;33272;51.922;7.730;2023-03-14T09:11:56;145331.03;;;11.42;100.00
47530;BME280;33272;51.922;7.730;2023-03-14T09:14:24;145346.25;;;11.48;100.00
47530;BME280;33272;51.922;7.730;2023-03-14T09:16:52;145339.91;;;11.45;100.00
47530;BME280;33272;51.922;7.730;2023-03-14T09:19:20;145327.19;;;11.40;100.00
47530;BME280;33272;51.922;7.730;2023-03-14T09:21:47;145347.50;;;11.48;100.00
47530;BME280;33272;51.922;7.730;2023-03-14T09:24:14;145379.22;;;11.61;100.00
47530;BME280;33272;51.922;7.730;2023-03-14T09:26:41;145396.97;;;11.68;100.00
47530;BME280;33272;51.922;7.730;2023-03-14T09:29:09;145334.81;;;11.43;100.00
47530;BME280;33272;51.922;7.730;2023-03-14T09:31:36;145395.72;;;11.68;100.00
47530;BME280;33272;51.922;7.730;2023-03-14T09:34:04;145398.22;;;11.69;100.00
47530;BME280;33272;51.922;7.730;2023-03-14T09:36:31;145386.84;;;11.64;100.00
47530;BME280;33272;51.922;7.730;2023-03-14T09:38:59;145366.53;;;11.56;100.00
47530;BME280;33272;51.922;7.730;2023-03-14T09:41:29;145311.97;;;11.34;100.00
47530;BME280;33272;51.922;7.730;2023-03-14T09:44:04;145325.94;;;11.40;100.00
47530;BME280;33272;51.922;7.730;2023-03-14T09:46:34;145292.97;;;11.26;100.00
47530;BME280;33272;51.922;7.730;2023-03-14T09:49:08;145289.16;;;11.25;100.00
47530;BME280;33272;51.922;7.730;2023-03-14T09:51:37;145320.84;;;11.37;100.00
47530;BME280;33272;51.922;7.730;2023-03-14T09:54:05;145247.31;;;11.08;100.00
47530;BME280;33272;51.922;7.730;2023-03-14T09:56:41;145011.53;;;10.13;100.00
47530;BME280;33272;51.922;7.730;2023-03-14T09:59:11;144925.41;;;9.78;100.00
47530;BME280;33272;51.922;7.730;2023-03-14T10:01:39;144824.09;;;9.37;100.00
47530;BME280;33272;51.922;7.730;2023-03-14T10:04:15;144783.56;;;9.21;100.00
47530;BME280;33272;51.922;7.730;2023-03-14T10:06:43;144762.06;;;9.12;100.00
47530;BME280;33272;51.922;7.730;2023-03-14T10:09:14;144721.56;;;8.96;100.00
47530;BME280;33272;51.922;7.730;2023-03-14T10:11:44;144717.72;;;8.94;100.00
47530;BME280;33272;51.922;7.730;2023-03-14T10:14:11;144719.00;;;8.95;100.00
47530;BME280;33272;51.922;7.730;2023-03-14T10:16:43;144683.56;;;8.80;100.00
47530;BME280;33272;51.922;7.730;2023-03-14T10:19:14;144693.69;;;8.85;100.00
47530;BME280;33272;51.922;7.730;2023-03-14T10:21:43;144678.50;;;8.78;100.00
47530;BME280;33272;51.922;7.730;2023-03-14T10:24:20;144648.13;;;8.66;100.00
47530;BME280;33272;51.922;7.730;2023-03-14T10:26:54;144610.16;;;8.51;100.00
47530;BME280;33272;51.922;7.730;2023-03-14T10:29:21;144608.91;;;8.50;100.00
47530;BME280;33272;51.922;7.730;2023-03-14T10:31:52;144598.78;;;8.46;100.00
47530;BME280;33272;51.922;7.730;2023-03-14T10:34:25;144554.44;;;8.28;100.00
47530;BME280;33272;51.922;7.730;2023-03-14T10:36:54;144559.53;;;8.30;100.00
47530;BME280;33272;51.922;7.730;2023-03-14T10:39:33;144524.09;;;8.16;100.00
47530;BME280;33272;51.922;7.730;2023-03-14T10:42:11;144449.50;;;7.86;100.00
47530;BME280;33272;51.922;7.730;2023-03-14T10:44:40;144407.75;;;7.69;100.00
47530;BME280;33272;51.922;7.730;2023-03-14T10:47:18;144294.00;;;7.23;100.00
47530;BME280;33272;51.922;7.730;2023-03-14T10:49:47;144348.34;;;7.45;100.00
47530;BME280;33272;51.922;7.730;2023-03-14T10:52:20;144331.94;;;7.38;100.00
47530;BME280;33272;51.922;7.730;2023-03-14T10:54:49;144319.28;;;7.33;100.00
47530;BME280;33272;51.922;7.730;2023-03-14T10:57:22;144324.34;;;7.35;100.00
47530;BME280;33272;51.922;7.730;2023-03-14T10:59:50;144309.19;;;7.29;100.00
47530;BME280;33272;51.922;7.730;2023-03-14T11:02:39;144311.69;;;7.30;100.00
47530;BME280;33272;51.922;7.730;2023-03-14T11:05:27;144326.84;;;7.36;100.00
47530;BME280;33272;51.922;7.730;2023-03-14T11:08:02;144334.44;;;7.39;100.00
47530;BME280;33272;51.922;7.730;2023-03-14T11:10:33;144315.50;;;7.32;100.00
47530;BME280;33272;51.922;7.730;2023-03-14T11:13:12;144306.66;;;7.28;100.00
47530;BME280;33272;51.922;7.730;2023-03-14T11:15:51;144287.69;;;7.20;100.00
47530;BME280;33272;51.922;7.730;2023-03-14T11:18:51;144214.41;;;6.91;100.00
47530;BME280;33272;51.922;7.730;2023-03-14T11:21:31;144235.84;;;7.00;100.00
47530;BME280;33272;51.922;7.730;2023-03-14T11:24:17;144237.16;;;7.00;100.00
47530;BME280;33272;51.922;7.730;2023-03-14T11:26:55;144248.50;;;7.05;100.00
47530;BME280;33272;51.922;7.730;2023-03-14T11:29:36;144246.00;;;7.04;100.00
47530;BME280;33272;51.922;7.730;2023-03-14T11:32:14;144230.84;;;6.97;100.00
47530;BME280;33272;51.922;7.730;2023-03-14T11:34:51;144271.25;;;7.14;100.00
47530;BME280;33272;51.922;7.730;2023-03-14T11:37:25;144291.50;;;7.22;100.00
47530;BME280;33272;51.922;7.730;2023-03-14T11:40:02;144310.44;;;7.30;100.00
47530;BME280;33272;51.922;7.730;2023-03-14T11:42:33;144305.34;;;7.28;100.00
47530;BME280;33272;51.922;7.730;2023-03-14T11:45:00;144301.59;;;7.26;100.00
47530;BME280;33272;51.922;7.730;2023-03-14T11:47:31;144328.13;;;7.37;100.00
47530;BME280;33272;51.922;7.730;2023-03-14T11:50:04;144358.47;;;7.49;100.00
47530;BME280;33272;51.922;7.730;2023-03-14T11:52:39;144395.13;;;7.64;100.00
47530;BME280;33272;51.922;7.730;2023-03-14T11:55:12;144415.34;;;7.72;100.00
47530;BME280;33272;51.922;7.730;2023-03-14T11:57:44;144421.66;;;7.75;100.00
47530;BME280;33272;51.922;7.730;2023-03-14T12:00:17;144407.75;;;7.69;100.00
47530;BME280;33272;51.922;7.730;2023-03-14T12:02:50;144420.41;;;7.74;100.00
47530;BME280;33272;51.922;7.730;2023-03-14T12:05:42;144459.59;;;7.90;100.00
47530;BME280;33272;51.922;7.730;2023-03-14T12:08:46;144493.72;;;8.04;100.00
47530;BME280;33272;51.922;7.730;2023-03-14T12:11:25;144512.72;;;8.11;100.00
47530;BME280;33272;51.922;7.730;2023-03-14T12:13:53;144559.53;;;8.30;100.00
47530;BME280;33272;51.922;7.730;2023-03-14T12:16:33;144601.31;;;8.47;100.00
47530;BME280;33272;51.922;7.730;2023-03-14T12:19:34;144619.06;;;8.54;100.00
47530;BME280;33272;51.922;7.730;2023-03-14T12:22:26;144583.59;;;8.40;100.00
47530;BME280;33272;51.922;7.730;2023-03-14T12:25:03;144601.31;;;8.47;100.00
47530;BME280;33272;51.922;7.730;2023-03-14T12:28:02;144572.19;;;8.35;100.00
47530;BME280;33272;51.922;7.730;2023-03-14T12:30:32;144574.72;;;8.36;100.00
47530;BME280;33272;51.922;7.730;2023-03-14T12:33:28;144524.09;;;8.16;100.00
47530;BME280;33272;51.922;7.730;2023-03-14T12:36:00;144508.91;;;8.10;100.00
47530;BME280;33272;51.922;7.730;2023-03-14T12:38:46;144453.28;;;7.87;100.00
47530;BME280;33272;51.922;7.730;2023-03-14T12:41:21;144454.53;;;7.88;100.00
47530;BME280;33272;51.922;7.730;2023-03-14T12:43:51;144411.56;;;7.71;100.00
47530;BME280;33272;51.922;7.730;2023-03-14T12:46:24;144417.91;;;7.73;100.00
47530;BME280;33272;51.922;7.730;2023-03-14T12:48:56;144481.13;;;7.99;100.00
47530;BME280;33272;51.922;7.730;2023-03-14T12:51:35;144435.59;;;7.80;100.00
47530;BME280;33272;51.922;7.730;2023-03-14T12:54:32;144425.47;;;7.76;100.00
47530;BME280;33272;51.922;7.730;2023-03-14T12:57:20;144458.34;;;7.89;100.00
47530;BME280;33272;51.922;7.730;2023-03-14T12:59:55;144473.53;;;7.96;100.00